DAOO/ORN METAR and TAF weather

Enter ICAO airport designator
Station Type Date Time Source
DAOO METAR 2021/09/23 17:30 UTC NOAA

DAOO 231730Z 34006KT 9999 BKN020 24/22 Q1011


Station Type Date Time Source
DAOO Decoded METAR 2021/09/23 17:30 UTC NOAA

Oran / Es Senia, Algeria (DAOO) 35-38N 000-36W 90M
Sep 23, 2021 - 01:30 PM EDT / 2021.09.23 1730 UTC
Wind: from the NNW (340 degrees) at 7 MPH (6 KT):0
Visibility: greater than 7 mile(s):0
Sky conditions: mostly cloudy
Temperature: 75 F (24 C)
Dew Point: 71 F (22 C)
Relative Humidity: 88%
Pressure (altimeter): 29.85 in. Hg (1011 hPa)
ob: DAOO 231730Z 34006KT 9999 BKN020 24/22 Q1011
cycle: 17

Station Type Date Time Source
DAOO TAF 2021/09/23 18:33 UTC NOAA

TAF DAOO 231700Z 2318/2418 34005KT 9999 BKN020 BKN233
BECMG
BECMG 2319/2322 VRB02KT
BECMG 2410/2413 27008KT 9999 SCT023

Example: see airport list